sensor_id;sensor_type;location;lat;lon;timestamp;pressure;altitude;pressure_sealevel;temperature;humidity
76609;BME280;65928;53.936;27.540;2023-02-14T00:01:09;99183.53;;;0.91;75.14
76609;BME280;65928;53.936;27.540;2023-02-14T00:03:35;99535.63;;;2.88;75.58
76609;BME280;65928;53.936;27.540;2023-02-14T00:06:08;99340.38;;;1.89;75.14
76609;BME280;65928;53.936;27.540;2023-02-14T00:08:34;99645.25;;;3.60;75.36
76609;BME280;65928;53.936;27.540;2023-02-14T00:11:01;99612.69;;;3.20;76.14
76609;BME280;65928;53.936;27.540;2023-02-14T00:13:27;99630.72;;;3.41;75.67
76609;BME280;65928;53.936;27.540;2023-02-14T00:15:53;99645.34;;;3.54;75.09
76609;BME280;65928;53.936;27.540;2023-02-14T00:18:19;99532.13;;;2.90;75.36
76609;BME280;65928;53.936;27.540;2023-02-14T00:20:45;99206.03;;;0.97;74.98
76609;BME280;65928;53.936;27.540;2023-02-14T00:23:10;99654.31;;;3.32;76.20
76609;BME280;65928;53.936;27.540;2023-02-14T00:25:36;99650.84;;;3.33;76.16
76609;BME280;65928;53.936;27.540;2023-02-14T00:28:01;99203.69;;;0.68;76.20
76609;BME280;65928;53.936;27.540;2023-02-14T00:30:27;99505.56;;;2.58;75.81
76609;BME280;65928;53.936;27.540;2023-02-14T00:32:52;99212.97;;;0.93;75.43
76609;BME280;65928;53.936;27.540;2023-02-14T00:35:18;99270.03;;;1.13;75.16
76609;BME280;65928;53.936;27.540;2023-02-14T00:37:45;99723.06;;;3.36;75.81
76609;BME280;65928;53.936;27.540;2023-02-14T00:40:11;99597.28;;;2.98;76.10
76609;BME280;65928;53.936;27.540;2023-02-14T00:42:37;99641.41;;;3.22;75.76
76609;BME280;65928;53.936;27.540;2023-02-14T00:45:02;99245.81;;;1.05;75.23
76609;BME280;65928;53.936;27.540;2023-02-14T00:47:28;99675.13;;;3.38;76.00
76609;BME280;65928;53.936;27.540;2023-02-14T00:49:53;99236.38;;;0.97;75.01
76609;BME280;65928;53.936;27.540;2023-02-14T00:52:19;99671.66;;;3.36;75.98
76609;BME280;65928;53.936;27.540;2023-02-14T00:54:44;99622.38;;;3.12;75.84
76609;BME280;65928;53.936;27.540;2023-02-14T00:57:10;99218.28;;;0.84;75.65
76609;BME280;65928;53.936;27.540;2023-02-14T00:59:35;99272.03;;;0.84;75.72
76609;BME280;65928;53.936;27.540;2023-02-14T01:02:01;99311.59;;;1.19;75.68
76609;BME280;65928;53.936;27.540;2023-02-14T01:04:26;99695.13;;;3.42;76.00
76609;BME280;65928;53.936;27.540;2023-02-14T01:06:52;99335.72;;;1.36;75.62
76609;BME280;65928;53.936;27.540;2023-02-14T01:09:17;99302.00;;;1.26;75.31
76609;BME280;65928;53.936;27.540;2023-02-14T01:11:43;99696.94;;;3.34;75.73
76609;BME280;65928;53.936;27.540;2023-02-14T01:14:08;99229.69;;;0.68;75.19
76609;BME280;65928;53.936;27.540;2023-02-14T01:16:34;99607.88;;;2.86;75.60
76609;BME280;65928;53.936;27.540;2023-02-14T01:19:00;99264.34;;;0.73;75.45
76609;BME280;65928;53.936;27.540;2023-02-14T01:21:32;99323.59;;;1.37;74.94
76609;BME280;65928;53.936;27.540;2023-02-14T01:24:01;99261.66;;;0.82;74.73
76609;BME280;65928;53.936;27.540;2023-02-14T01:26:28;99252.91;;;0.91;75.00
76609;BME280;65928;53.936;27.540;2023-02-14T01:28:55;99328.00;;;1.32;74.77
76609;BME280;65928;53.936;27.540;2023-02-14T01:31:23;99673.47;;;3.33;75.07
76609;BME280;65928;53.936;27.540;2023-02-14T01:33:50;99572.41;;;2.69;74.87
76609;BME280;65928;53.936;27.540;2023-02-14T01:38:53;99221.91;;;0.70;74.51
76609;BME280;65928;53.936;27.540;2023-02-14T01:41:19;99223.41;;;0.95;73.76
76609;BME280;65928;53.936;27.540;2023-02-14T01:43:57;99692.56;;;3.36;74.80
76609;BME280;65928;53.936;27.540;2023-02-14T01:46:25;99279.63;;;1.08;74.49
76609;BME280;65928;53.936;27.540;2023-02-14T01:48:53;99663.84;;;3.38;74.36
76609;BME280;65928;53.936;27.540;2023-02-14T01:51:20;99241.75;;;0.77;74.59
76609;BME280;65928;53.936;27.540;2023-02-14T01:53:46;99314.19;;;1.21;74.47
76609;BME280;65928;53.936;27.540;2023-02-14T01:56:22;99237.41;;;0.79;73.96
76609;BME280;65928;53.936;27.540;2023-02-14T01:58:51;99643.34;;;3.02;74.06
76609;BME280;65928;53.936;27.540;2023-02-14T02:01:17;99243.66;;;0.57;74.49
76609;BME280;65928;53.936;27.540;2023-02-14T02:03:55;99708.59;;;3.06;75.04
76609;BME280;65928;53.936;27.540;2023-02-14T02:06:35;99686.78;;;3.10;74.83
76609;BME280;65928;53.936;27.540;2023-02-14T02:09:15;99735.56;;;3.07;74.65
76609;BME280;65928;53.936;27.540;2023-02-14T02:11:42;99244.66;;;0.42;74.80
76609;BME280;65928;53.936;27.540;2023-02-14T02:14:13;99696.53;;;2.93;74.40
76609;BME280;65928;53.936;27.540;2023-02-14T02:33:10;99718.38;;;2.80;75.00
76609;BME280;65928;53.936;27.540;2023-02-14T02:38:50;99733.97;;;2.91;74.11
76609;BME280;65928;53.936;27.540;2023-02-14T02:41:41;99733.97;;;2.88;74.14
76609;BME280;65928;53.936;27.540;2023-02-14T02:47:25;99706.25;;;2.78;74.05
76609;BME280;65928;53.936;27.540;2023-02-14T02:53:12;99740.00;;;2.96;74.16
76609;BME280;65928;53.936;27.540;2023-02-14T02:55:55;99790.53;;;2.89;73.39
76609;BME280;65928;53.936;27.540;2023-02-14T03:01:21;99787.97;;;2.83;74.17
76609;BME280;65928;53.936;27.540;2023-02-14T03:03:53;99523.94;;;1.55;74.03
76609;BME280;65928;53.936;27.540;2023-02-14T03:06:39;99694.25;;;2.60;73.48
76609;BME280;65928;53.936;27.540;2023-02-14T03:12:21;99738.34;;;2.87;73.55
76609;BME280;65928;53.936;27.540;2023-02-14T03:17:35;99747.00;;;2.95;73.26
76609;BME280;65928;53.936;27.540;2023-02-14T03:23:28;99682.88;;;2.62;72.99
76609;BME280;65928;53.936;27.540;2023-02-14T03:34:56;99291.53;;;0.24;72.59
76609;BME280;65928;53.936;27.540;2023-02-14T03:40:21;99758.34;;;2.91;73.51
76609;BME280;65928;53.936;27.540;2023-02-14T03:45:29;99706.53;;;2.44;73.07
76609;BME280;65928;53.936;27.540;2023-02-14T03:48:00;99403.84;;;0.80;72.94
76609;BME280;65928;53.936;27.540;2023-02-14T03:50:30;99746.47;;;2.52;73.40
76609;BME280;65928;53.936;27.540;2023-02-14T03:52:58;99821.13;;;2.71;73.38
76609;BME280;65928;53.936;27.540;2023-02-14T03:55:33;99387.66;;;0.30;73.60
76609;BME280;65928;53.936;27.540;2023-02-14T03:58:22;99713.66;;;2.20;74.25
76609;BME280;65928;53.936;27.540;2023-02-14T04:00:53;99809.94;;;2.54;74.40
76609;BME280;65928;53.936;27.540;2023-02-14T04:03:23;99778.56;;;2.62;73.64
76609;BME280;65928;53.936;27.540;2023-02-14T04:05:49;99681.59;;;2.12;73.92
76609;BME280;65928;53.936;27.540;2023-02-14T04:08:25;99384.22;;;0.22;74.20
76609;BME280;65928;53.936;27.540;2023-02-14T04:10:52;99803.88;;;2.45;74.30
76609;BME280;65928;53.936;27.540;2023-02-14T04:13:18;99302.16;;;-0.23;74.16
76609;BME280;65928;53.936;27.540;2023-02-14T04:15:44;99804.75;;;2.48;74.78
76609;BME280;65928;53.936;27.540;2023-02-14T04:18:10;99322.94;;;-0.26;74.31
76609;BME280;65928;53.936;27.540;2023-02-14T04:20:53;99567.50;;;1.23;74.70
76609;BME280;65928;53.936;27.540;2023-02-14T04:23:19;99317.72;;;-0.21;74.80
76609;BME280;65928;53.936;27.540;2023-02-14T04:25:44;99782.25;;;2.32;74.64
76609;BME280;65928;53.936;27.540;2023-02-14T04:28:11;99307.38;;;-0.32;73.99
76609;BME280;65928;53.936;27.540;2023-02-14T04:30:37;99326.38;;;-0.22;74.46
76609;BME280;65928;53.936;27.540;2023-02-14T04:33:03;99782.28;;;2.22;74.51
76609;BME280;65928;53.936;27.540;2023-02-14T04:35:29;99520.91;;;0.77;75.06
76609;BME280;65928;53.936;27.540;2023-02-14T04:37:54;99779.59;;;2.38;74.13
76609;BME280;65928;53.936;27.540;2023-02-14T04:40:20;99791.78;;;2.32;74.42
76609;BME280;65928;53.936;27.540;2023-02-14T04:42:46;99805.78;;;2.16;74.62
76609;BME280;65928;53.936;27.540;2023-02-14T04:45:12;99266.81;;;-0.66;74.54
76609;BME280;65928;53.936;27.540;2023-02-14T04:47:38;99781.34;;;2.33;73.71
76609;BME280;65928;53.936;27.540;2023-02-14T04:50:04;99770.22;;;2.07;74.60
76609;BME280;65928;53.936;27.540;2023-02-14T04:52:30;99787.59;;;2.10;74.62
76609;BME280;65928;53.936;27.540;2023-02-14T04:54:55;99784.09;;;2.14;74.96
76609;BME280;65928;53.936;27.540;2023-02-14T04:57:21;99659.44;;;1.29;75.07
76609;BME280;65928;53.936;27.540;2023-02-14T04:59:46;99718.38;;;1.50;75.07
76609;BME280;65928;53.936;27.540;2023-02-14T05:02:12;99789.34;;;2.08;75.37
76609;BME280;65928;53.936;27.540;2023-02-14T05:04:37;99825.00;;;2.00;75.08
76609;BME280;65928;53.936;27.540;2023-02-14T05:07:03;99778.13;;;1.89;75.35
76609;BME280;65928;53.936;27.540;2023-02-14T05:09:28;99712.28;;;1.48;74.95
76609;BME280;65928;53.936;27.540;2023-02-14T05:11:54;99782.38;;;2.10;74.94
76609;BME280;65928;53.936;27.540;2023-02-14T05:14:19;99773.72;;;2.02;74.58
76609;BME280;65928;53.936;27.540;2023-02-14T05:16:45;99795.44;;;1.99;75.54
76609;BME280;65928;53.936;27.540;2023-02-14T05:19:10;99341.22;;;-0.72;75.08
76609;BME280;65928;53.936;27.540;2023-02-14T05:21:36;99708.81;;;1.50;74.84
76609;BME280;65928;53.936;27.540;2023-02-14T05:24:02;99811.97;;;1.98;74.86
76609;BME280;65928;53.936;27.540;2023-02-14T05:26:29;99332.53;;;-0.64;74.62
76609;BME280;65928;53.936;27.540;2023-02-14T05:28:55;99689.78;;;1.36;74.98
76609;BME280;65928;53.936;27.540;2023-02-14T05:31:20;99349.84;;;-0.79;75.73
76609;BME280;65928;53.936;27.540;2023-02-14T05:33:46;99798.13;;;1.84;75.67
76609;BME280;65928;53.936;27.540;2023-02-14T05:36:12;99409.47;;;-0.33;75.52
76609;BME280;65928;53.936;27.540;2023-02-14T05:38:37;99787.78;;;1.69;76.31
76609;BME280;65928;53.936;27.540;2023-02-14T05:41:03;99809.38;;;1.89;75.88
76609;BME280;65928;53.936;27.540;2023-02-14T05:43:28;99802.41;;;1.93;75.64
76609;BME280;65928;53.936;27.540;2023-02-14T05:45:57;99331.72;;;-1.02;76.22
76609;BME280;65928;53.936;27.540;2023-02-14T05:48:23;99256.53;;;-1.43;76.11
76609;BME280;65928;53.936;27.540;2023-02-14T05:50:49;99368.03;;;-0.88;75.65
76609;BME280;65928;53.936;27.540;2023-02-14T05:53:14;99500.34;;;-0.10;75.76
76609;BME280;65928;53.936;27.540;2023-02-14T05:55:40;99622.38;;;0.50;76.20
76609;BME280;65928;53.936;27.540;2023-02-14T05:58:06;99426.81;;;-0.53;75.76
76609;BME280;65928;53.936;27.540;2023-02-14T06:00:32;99779.94;;;1.70;75.82
76609;BME280;65928;53.936;27.540;2023-02-14T06:02:59;99825.06;;;1.77;75.43
76609;BME280;65928;53.936;27.540;2023-02-14T06:05:24;99534.94;;;0.25;75.15
76609;BME280;65928;53.936;27.540;2023-02-14T06:07:51;99416.44;;;-0.51;74.50
76609;BME280;65928;53.936;27.540;2023-02-14T06:10:19;99900.59;;;1.88;74.77
76609;BME280;65928;53.936;27.540;2023-02-14T06:12:45;99814.59;;;1.92;74.53
76609;BME280;65928;53.936;27.540;2023-02-14T06:15:12;99838.00;;;2.03;74.19
76609;BME280;65928;53.936;27.540;2023-02-14T06:17:37;99558.31;;;0.27;74.60
76609;BME280;65928;53.936;27.540;2023-02-14T06:20:03;99898.91;;;1.74;74.71
76609;BME280;65928;53.936;27.540;2023-02-14T06:22:29;99390.50;;;-0.86;74.03
76609;BME280;65928;53.936;27.540;2023-02-14T06:24:54;99400.88;;;-0.66;73.76
76609;BME280;65928;53.936;27.540;2023-02-14T06:27:20;99393.94;;;-0.73;74.19
76609;BME280;65928;53.936;27.540;2023-02-14T06:29:45;99842.47;;;1.69;75.16
76609;BME280;65928;53.936;27.540;2023-02-14T06:32:11;99380.09;;;-0.95;73.53
76609;BME280;65928;53.936;27.540;2023-02-14T06:34:36;99793.00;;;1.63;73.63
76609;BME280;65928;53.936;27.540;2023-02-14T06:37:04;99801.75;;;1.20;74.05
76609;BME280;65928;53.936;27.540;2023-02-14T06:39:29;99870.19;;;1.90;74.37
76609;BME280;65928;53.936;27.540;2023-02-14T06:41:54;99428.53;;;-0.52;73.85
76609;BME280;65928;53.936;27.540;2023-02-14T06:44:20;99946.63;;;1.98;73.96
76609;BME280;65928;53.936;27.540;2023-02-14T06:46:45;99370.63;;;-0.84;73.05
76609;BME280;65928;53.936;27.540;2023-02-14T06:49:11;99880.56;;;2.09;74.00
76609;BME280;65928;53.936;27.540;2023-02-14T06:51:36;99413.84;;;-0.60;74.06
76609;BME280;65928;53.936;27.540;2023-02-14T06:54:02;99683.03;;;0.61;74.55
76609;BME280;65928;53.936;27.540;2023-02-14T06:56:27;99400.00;;;-0.83;73.43
76609;BME280;65928;53.936;27.540;2023-02-14T06:58:53;99547.09;;;-0.24;74.24
76609;BME280;65928;53.936;27.540;2023-02-14T07:01:18;99518.50;;;-0.34;74.53
76609;BME280;65928;53.936;27.540;2023-02-14T07:03:44;99449.28;;;-0.85;74.15
76609;BME280;65928;53.936;27.540;2023-02-14T07:06:09;99792.25;;;1.07;74.60
76609;BME280;65928;53.936;27.540;2023-02-14T07:08:35;99429.41;;;-0.84;74.46
76609;BME280;65928;53.936;27.540;2023-02-14T07:11:00;99911.00;;;1.98;73.86
76609;BME280;65928;53.936;27.540;2023-02-14T07:13:26;99586.03;;;0.20;73.29
76609;BME280;65928;53.936;27.540;2023-02-14T07:15:51;99447.56;;;-0.84;73.44
76609;BME280;65928;53.936;27.540;2023-02-14T07:18:17;99921.41;;;1.95;73.65
76609;BME280;65928;53.936;27.540;2023-02-14T07:20:42;99821.69;;;1.43;73.41
76609;BME280;65928;53.936;27.540;2023-02-14T07:23:09;99928.38;;;1.92;73.43
76609;BME280;65928;53.936;27.540;2023-02-14T07:25:34;99534.97;;;-0.02;72.10
76609;BME280;65928;53.936;27.540;2023-02-14T07:28:00;99361.09;;;-0.86;72.08
76609;BME280;65928;53.936;27.540;2023-02-14T07:30:26;99442.38;;;-0.59;72.53
76609;BME280;65928;53.936;27.540;2023-02-14T07:32:52;99463.16;;;-0.38;71.89
76609;BME280;65928;53.936;27.540;2023-02-14T07:35:18;99641.41;;;0.63;72.11
76609;BME280;65928;53.936;27.540;2023-02-14T07:37:43;99556.59;;;0.27;70.38
76609;BME280;65928;53.936;27.540;2023-02-14T07:40:09;99989.94;;;2.44;71.06
76609;BME280;65928;53.936;27.540;2023-02-14T07:42:35;99914.31;;;2.38;71.03
76609;BME280;65928;53.936;27.540;2023-02-14T07:45:01;99467.44;;;-0.14;70.34
76609;BME280;65928;53.936;27.540;2023-02-14T07:47:27;99530.53;;;0.54;69.36
76609;BME280;65928;53.936;27.540;2023-02-14T07:49:53;99649.91;;;1.31;69.09
76609;BME280;65928;53.936;27.540;2023-02-14T07:52:19;99639.53;;;1.15;69.36
76609;BME280;65928;53.936;27.540;2023-02-14T07:54:44;99667.25;;;1.31;69.06
76609;BME280;65928;53.936;27.540;2023-02-14T07:57:10;99918.41;;;2.93;68.86
76609;BME280;65928;53.936;27.540;2023-02-14T07:59:35;99540.91;;;0.57;69.25
76609;BME280;65928;53.936;27.540;2023-02-14T08:02:01;99894.19;;;2.62;69.15
76609;BME280;65928;53.936;27.540;2023-02-14T08:04:26;99459.56;;;0.16;68.47
76609;BME280;65928;53.936;27.540;2023-02-14T08:06:52;99903.84;;;2.50;68.91
76609;BME280;65928;53.936;27.540;2023-02-14T08:09:19;99454.44;;;-0.02;68.85
76609;BME280;65928;53.936;27.540;2023-02-14T08:11:55;99479.50;;;0.20;69.05
76609;BME280;65928;53.936;27.540;2023-02-14T08:14:39;99685.53;;;1.16;68.35
76609;BME280;65928;53.936;27.540;2023-02-14T08:17:05;99469.13;;;0.13;67.75
76609;BME280;65928;53.936;27.540;2023-02-14T08:19:32;99579.75;;;0.98;68.02
76609;BME280;65928;53.936;27.540;2023-02-14T08:21:57;99500.22;;;0.46;67.65
76609;BME280;65928;53.936;27.540;2023-02-14T08:24:23;99475.13;;;0.30;67.96
76609;BME280;65928;53.936;27.540;2023-02-14T08:26:49;99889.84;;;2.67;67.31
76609;BME280;65928;53.936;27.540;2023-02-14T08:29:15;99876.69;;;2.83;66.71
76609;BME280;65928;53.936;27.540;2023-02-14T08:31:40;99930.56;;;2.97;66.82
76609;BME280;65928;53.936;27.540;2023-02-14T08:34:06;99924.25;;;3.25;66.54
76609;BME280;65928;53.936;27.540;2023-02-14T08:36:32;99565.06;;;0.91;66.48
76609;BME280;65928;53.936;27.540;2023-02-14T08:38:58;99918.28;;;3.08;66.25
76609;BME280;65928;53.936;27.540;2023-02-14T08:41:23;99915.69;;;3.08;66.57
76609;BME280;65928;53.936;27.540;2023-02-14T08:43:49;99981.81;;;3.10;66.72
76609;BME280;65928;53.936;27.540;2023-02-14T08:46:15;99929.63;;;3.04;66.16
76609;BME280;65928;53.936;27.540;2023-02-14T08:48:42;100007.06;;;3.07;66.03
76609;BME280;65928;53.936;27.540;2023-02-14T08:51:11;99940.06;;;3.06;65.83
76609;BME280;65928;53.936;27.540;2023-02-14T08:53:39;99467.25;;;0.60;65.01
76609;BME280;65928;53.936;27.540;2023-02-14T08:56:07;99932.19;;;3.12;65.24
76609;BME280;65928;53.936;27.540;2023-02-14T08:58:33;99652.41;;;1.48;65.02
76609;BME280;65928;53.936;27.540;2023-02-14T09:01:01;99602.28;;;1.13;64.67
76609;BME280;65928;53.936;27.540;2023-02-14T09:03:26;99970.50;;;3.10;64.96
76609;BME280;65928;53.936;27.540;2023-02-14T09:05:52;99984.38;;;3.15;64.79
76609;BME280;65928;53.936;27.540;2023-02-14T09:08:17;99946.91;;;3.26;64.78
76609;BME280;65928;53.936;27.540;2023-02-14T09:10:43;99572.78;;;1.03;64.07
76609;BME280;65928;53.936;27.540;2023-02-14T09:13:08;99497.63;;;0.44;64.00
76609;BME280;65928;53.936;27.540;2023-02-14T09:15:34;99870.63;;;2.79;64.72
76609;BME280;65928;53.936;27.540;2023-02-14T09:17:59;99920.00;;;3.12;64.47
76609;BME280;65928;53.936;27.540;2023-02-14T09:20:25;100006.91;;;3.34;64.79
76609;BME280;65928;53.936;27.540;2023-02-14T09:22:53;99508.72;;;0.85;64.14
76609;BME280;65928;53.936;27.540;2023-02-14T09:25:19;99830.72;;;2.60;63.79
76609;BME280;65928;53.936;27.540;2023-02-14T09:27:45;99990.41;;;3.27;63.59
76609;BME280;65928;53.936;27.540;2023-02-14T09:30:11;99945.19;;;3.22;63.22
76609;BME280;65928;53.936;27.540;2023-02-14T09:32:37;99908.72;;;3.07;62.77
76609;BME280;65928;53.936;27.540;2023-02-14T09:35:03;99976.22;;;3.61;62.91
76609;BME280;65928;53.936;27.540;2023-02-14T09:37:46;99557.25;;;0.97;62.13
76609;BME280;65928;53.936;27.540;2023-02-14T09:40:16;99584.91;;;1.12;61.88
76609;BME280;65928;53.936;27.540;2023-02-14T09:42:55;100019.78;;;3.59;62.41
76609;BME280;65928;53.936;27.540;2023-02-14T09:45:27;99541.41;;;1.30;61.36
76609;BME280;65928;53.936;27.540;2023-02-14T09:48:07;100007.56;;;3.63;60.84
76609;BME280;65928;53.936;27.540;2023-02-14T09:50:49;99840.19;;;2.81;60.49
76609;BME280;65928;53.936;27.540;2023-02-14T09:53:28;99995.22;;;3.82;60.27
76609;BME280;65928;53.936;27.540;2023-02-14T09:56:05;100063.22;;;3.79;60.82
76609;BME280;65928;53.936;27.540;2023-02-14T09:58:37;99912.84;;;3.37;59.88
76609;BME280;65928;53.936;27.540;2023-02-14T10:01:17;99755.22;;;2.42;59.00
76609;BME280;65928;53.936;27.540;2023-02-14T10:12:30;99999.41;;;4.01;58.86
76609;BME280;65928;53.936;27.540;2023-02-14T10:15:00;99741.97;;;2.69;58.59
76609;BME280;65928;53.936;27.540;2023-02-14T10:17:38;99802.75;;;2.82;57.23
76609;BME280;65928;53.936;27.540;2023-02-14T10:20:15;99934.69;;;3.30;57.52
76609;BME280;65928;53.936;27.540;2023-02-14T10:22:49;99593.16;;;1.83;58.50
76609;BME280;65928;53.936;27.540;2023-02-14T10:25:26;99767.09;;;2.86;58.37
76609;BME280;65928;53.936;27.540;2023-02-14T10:27:55;99970.47;;;4.19;57.91
76609;BME280;65928;53.936;27.540;2023-02-14T10:30:23;99896.78;;;3.81;57.99
76609;BME280;65928;53.936;27.540;2023-02-14T10:35:49;99994.72;;;4.34;57.48
76609;BME280;65928;53.936;27.540;2023-02-14T10:46:30;100039.78;;;4.59;56.16
76609;BME280;65928;53.936;27.540;2023-02-14T10:52:00;99566.97;;;2.01;56.09
76609;BME280;65928;53.936;27.540;2023-02-14T10:54:41;100044.38;;;4.39;56.38
76609;BME280;65928;53.936;27.540;2023-02-14T10:59:51;100049.50;;;4.49;56.57
76609;BME280;65928;53.936;27.540;2023-02-14T11:02:22;100060.84;;;4.50;55.19
76609;BME280;65928;53.936;27.540;2023-02-14T11:04:49;99653.34;;;2.60;54.23
76609;BME280;65928;53.936;27.540;2023-02-14T11:07:17;99891.34;;;4.00;55.01
76609;BME280;65928;53.936;27.540;2023-02-14T11:09:44;100052.94;;;4.53;55.71
76609;BME280;65928;53.936;27.540;2023-02-14T11:12:09;99677.56;;;2.78;54.53
76609;BME280;65928;53.936;27.540;2023-02-14T11:14:39;99847.81;;;3.95;55.17
76609;BME280;65928;53.936;27.540;2023-02-14T11:17:34;99997.66;;;4.80;54.34
76609;BME280;65928;53.936;27.540;2023-02-14T11:20:12;99981.28;;;4.66;52.55
76609;BME280;65928;53.936;27.540;2023-02-14T11:22:45;99825.19;;;3.91;52.35
76609;BME280;65928;53.936;27.540;2023-02-14T11:27:45;99647.09;;;2.80;51.90
76609;BME280;65928;53.936;27.540;2023-02-14T11:30:49;99998.69;;;4.70;51.78
76609;BME280;65928;53.936;27.540;2023-02-14T11:35:56;99602.31;;;2.34;50.85
76609;BME280;65928;53.936;27.540;2023-02-14T11:38:31;99622.19;;;2.45;50.66
76609;BME280;65928;53.936;27.540;2023-02-14T11:41:00;99989.88;;;4.74;51.04
76609;BME280;65928;53.936;27.540;2023-02-14T11:43:34;99920.75;;;4.19;50.20
76609;BME280;65928;53.936;27.540;2023-02-14T11:49:02;100076.34;;;4.70;50.22
76609;BME280;65928;53.936;27.540;2023-02-14T11:53:59;99563.38;;;2.14;49.88
76609;BME280;65928;53.936;27.540;2023-02-14T11:59:28;99868.88;;;3.83;49.26
76609;BME280;65928;53.936;27.540;2023-02-14T12:01:57;99987.56;;;4.50;49.24
76609;BME280;65928;53.936;27.540;2023-02-14T12:04:32;100016.63;;;4.99;49.61
76609;BME280;65928;53.936;27.540;2023-02-14T12:07:15;100063.09;;;4.83;48.89
76609;BME280;65928;53.936;27.540;2023-02-14T12:09:41;100008.50;;;4.50;47.33
76609;BME280;65928;53.936;27.540;2023-02-14T12:12:19;100049.19;;;4.77;48.47
76609;BME280;65928;53.936;27.540;2023-02-14T12:14:45;99586.03;;;2.05;48.47
76609;BME280;65928;53.936;27.540;2023-02-14T12:17:30;100058.06;;;4.65;48.03
76609;BME280;65928;53.936;27.540;2023-02-14T12:20:11;99588.69;;;2.02;47.73
76609;BME280;65928;53.936;27.540;2023-02-14T12:23:04;100015.31;;;4.66;47.70
76609;BME280;65928;53.936;27.540;2023-02-14T12:25:38;100035.47;;;4.55;46.79
76609;BME280;65928;53.936;27.540;2023-02-14T12:28:07;100022.28;;;4.66;46.46
76609;BME280;65928;53.936;27.540;2023-02-14T12:30:34;99660.16;;;2.77;47.63
76609;BME280;65928;53.936;27.540;2023-02-14T12:33:00;100016.00;;;4.82;48.79
76609;BME280;65928;53.936;27.540;2023-02-14T12:54:45;100088.41;;;4.83;46.91
76609;BME280;65928;53.936;27.540;2023-02-14T13:07:00;99610.47;;;1.93;49.39
76609;BME280;65928;53.936;27.540;2023-02-14T13:09:48;100041.63;;;4.52;49.90
76609;BME280;65928;53.936;27.540;2023-02-14T13:12:37;100054.47;;;4.72;49.54
76609;BME280;65928;53.936;27.540;2023-02-14T13:15:18;100051.09;;;4.63;49.78
76609;BME280;65928;53.936;27.540;2023-02-14T13:18:02;100058.00;;;4.70;48.79
76609;BME280;65928;53.936;27.540;2023-02-14T13:20:48;100059.00;;;4.58;49.66
76609;BME280;65928;53.936;27.540;2023-02-14T13:23:19;100040.84;;;4.41;49.33
76609;BME280;65928;53.936;27.540;2023-02-14T13:25:50;99962.16;;;3.73;49.22
76609;BME280;65928;53.936;27.540;2023-02-14T13:28:17;99966.38;;;3.89;49.91
76609;BME280;65928;53.936;27.540;2023-02-14T13:30:43;99926.69;;;3.49;48.81
76609;BME280;65928;53.936;27.540;2023-02-14T13:33:25;99768.13;;;2.62;49.40
76609;BME280;65928;53.936;27.540;2023-02-14T13:35:58;100094.97;;;4.38;48.89
76609;BME280;65928;53.936;27.540;2023-02-14T13:38:25;100086.25;;;4.39;49.57
76609;BME280;65928;53.936;27.540;2023-02-14T13:40:53;100080.03;;;4.50;49.82
76609;BME280;65928;53.936;27.540;2023-02-14T13:43:59;100095.84;;;4.35;49.79
76609;BME280;65928;53.936;27.540;2023-02-14T13:51:49;99758.63;;;2.56;49.90
76609;BME280;65928;53.936;27.540;2023-02-14T13:54:28;100094.03;;;4.46;50.00
76609;BME280;65928;53.936;27.540;2023-02-14T13:56:55;100087.09;;;4.41;50.63
76609;BME280;65928;53.936;27.540;2023-02-14T13:59:30;100105.41;;;4.42;50.42
76609;BME280;65928;53.936;27.540;2023-02-14T14:04:51;100079.31;;;4.35;49.89
76609;BME280;65928;53.936;27.540;2023-02-14T14:07:25;100111.47;;;4.46;50.39
76609;BME280;65928;53.936;27.540;2023-02-14T14:09:56;100124.75;;;4.23;49.98
76609;BME280;65928;53.936;27.540;2023-02-14T14:17:33;99645.47;;;1.53;49.96
76609;BME280;65928;53.936;27.540;2023-02-14T14:20:00;100083.31;;;3.69;50.30
76609;BME280;65928;53.936;27.540;2023-02-14T14:22:27;100101.41;;;3.95;50.07
76609;BME280;65928;53.936;27.540;2023-02-14T14:24:59;100118.81;;;3.99;50.92
76609;BME280;65928;53.936;27.540;2023-02-14T14:27:31;100123.16;;;4.03;50.60
76609;BME280;65928;53.936;27.540;2023-02-14T14:29:59;99953.13;;;3.01;50.64
76609;BME280;65928;53.936;27.540;2023-02-14T14:32:31;100045.09;;;3.50;51.31
76609;BME280;65928;53.936;27.540;2023-02-14T14:35:02;100132.81;;;3.96;52.15
76609;BME280;65928;53.936;27.540;2023-02-14T14:37:33;100131.94;;;3.93;51.66
76609;BME280;65928;53.936;27.540;2023-02-14T14:40:02;99691.56;;;1.30;52.17
76609;BME280;65928;53.936;27.540;2023-02-14T14:42:36;100131.19;;;3.79;52.25
76609;BME280;65928;53.936;27.540;2023-02-14T14:45:19;100040.09;;;3.15;52.63
76609;BME280;65928;53.936;27.540;2023-02-14T14:47:46;99973.28;;;2.72;53.03
76609;BME280;65928;53.936;27.540;2023-02-14T14:50:25;100037.53;;;3.02;53.47
76609;BME280;65928;53.936;27.540;2023-02-14T14:53:00;100145.19;;;3.59;52.94
76609;BME280;65928;53.936;27.540;2023-02-14T14:55:33;100127.94;;;3.30;53.86
76609;BME280;65928;53.936;27.540;2023-02-14T14:58:05;100153.09;;;3.46;53.91
76609;BME280;65928;53.936;27.540;2023-02-14T15:00:36;99715.06;;;0.87;53.84
76609;BME280;65928;53.936;27.540;2023-02-14T15:05:44;100168.00;;;3.29;54.36
76609;BME280;65928;53.936;27.540;2023-02-14T15:11:09;100174.06;;;3.31;54.48
76609;BME280;65928;53.936;27.540;2023-02-14T15:16:40;100168.91;;;3.11;55.16
76609;BME280;65928;53.936;27.540;2023-02-14T15:19:15;99736.78;;;0.43;55.26
76609;BME280;65928;53.936;27.540;2023-02-14T15:21:44;99872.91;;;1.35;55.12
76609;BME280;65928;53.936;27.540;2023-02-14T15:24:13;99740.22;;;0.25;55.80
76609;BME280;65928;53.936;27.540;2023-02-14T15:26:42;99680.38;;;-0.11;56.11
76609;BME280;65928;53.936;27.540;2023-02-14T15:31:44;100195.09;;;2.77;56.78
76609;BME280;65928;53.936;27.540;2023-02-14T15:34:11;100207.28;;;2.47;56.52
76609;BME280;65928;53.936;27.540;2023-02-14T15:36:38;100171.66;;;2.34;56.18